createdAt,value
2018-12-19T00:00:23.610Z,19.20
2018-12-19T00:02:51.794Z,19.60
2018-12-19T00:05:19.899Z,18.70
2018-12-19T00:07:48.028Z,18.00
2018-12-19T00:10:16.165Z,19.27
2018-12-19T00:12:44.388Z,17.87
2018-12-19T00:15:12.714Z,18.53
2018-12-19T00:17:40.833Z,18.12
2018-12-19T00:20:08.977Z,19.48
2018-12-19T00:22:37.217Z,18.17
2018-12-19T00:25:05.738Z,18.75
2018-12-19T00:27:33.880Z,17.45
2018-12-19T00:30:02.046Z,18.20
2018-12-19T00:32:30.147Z,18.17
2018-12-19T00:34:58.260Z,18.23
2018-12-19T00:37:26.396Z,18.63
2018-12-19T00:39:54.504Z,18.27
2018-12-19T00:42:22.637Z,19.15
2018-12-19T00:44:50.754Z,17.62
2018-12-19T00:47:18.845Z,17.17
2018-12-19T00:49:47.011Z,18.52
2018-12-19T00:52:15.166Z,17.92
2018-12-19T00:54:43.292Z,17.25
2018-12-19T00:57:11.386Z,18.12
2018-12-19T00:59:39.599Z,19.02
2018-12-19T01:02:07.703Z,18.07
2018-12-19T01:04:35.857Z,17.82
2018-12-19T01:07:04.013Z,17.23
2018-12-19T01:09:32.096Z,17.67
2018-12-19T01:12:00.247Z,17.85
2018-12-19T01:14:28.390Z,17.42
2018-12-19T01:16:56.547Z,18.30
2018-12-19T01:19:24.725Z,17.23
2018-12-19T01:21:52.882Z,16.87
2018-12-19T01:24:21.043Z,18.17
2018-12-19T01:26:49.144Z,17.20
2018-12-19T01:29:17.278Z,17.20
2018-12-19T01:31:45.410Z,16.42
2018-12-19T01:34:13.526Z,18.37
2018-12-19T01:36:41.661Z,17.37
2018-12-19T01:39:09.801Z,17.48
2018-12-19T01:41:37.911Z,17.62
2018-12-19T01:44:06.068Z,16.37
2018-12-19T01:46:34.244Z,17.07
2018-12-19T01:49:02.368Z,18.00
2018-12-19T01:51:30.647Z,19.17
2018-12-19T01:53:58.755Z,17.50
2018-12-19T01:56:26.875Z,17.75
2018-12-19T01:58:55.022Z,17.90
2018-12-19T02:01:23.145Z,17.87
2018-12-19T02:03:51.258Z,17.05
2018-12-19T02:06:19.422Z,17.27
2018-12-19T02:08:47.546Z,17.42
2018-12-19T02:11:15.660Z,18.80
2018-12-19T02:13:43.760Z,17.77
2018-12-19T02:16:11.927Z,17.80
2018-12-19T02:18:40.065Z,17.98
2018-12-19T02:21:08.183Z,18.35
2018-12-19T02:23:36.288Z,18.05
2018-12-19T02:26:04.434Z,17.12
2018-12-19T02:28:32.619Z,18.77
2018-12-19T02:31:00.789Z,18.07
2018-12-19T02:33:28.873Z,19.00
2018-12-19T02:35:57.017Z,18.95
2018-12-19T02:38:25.086Z,18.27
2018-12-19T02:40:53.201Z,16.75
2018-12-19T02:43:21.321Z,18.25
2018-12-19T02:45:49.433Z,18.37
2018-12-19T02:48:17.548Z,19.42
2018-12-19T02:50:45.659Z,19.10
2018-12-19T02:53:13.826Z,17.87
2018-12-19T02:55:41.995Z,19.50
2018-12-19T02:58:10.116Z,18.02
2018-12-19T03:00:38.237Z,18.25
2018-12-19T03:03:06.345Z,17.85
2018-12-19T03:05:34.522Z,18.50
2018-12-19T03:08:02.650Z,18.75
2018-12-19T03:10:30.807Z,17.80
2018-12-19T03:12:58.970Z,18.07
2018-12-19T03:15:27.107Z,17.90
2018-12-19T03:17:55.247Z,17.05
2018-12-19T03:20:23.380Z,18.57
2018-12-19T03:22:51.492Z,17.87
2018-12-19T03:25:19.687Z,18.62
2018-12-19T03:27:47.885Z,18.35
2018-12-19T03:30:16.004Z,19.32
2018-12-19T03:32:44.178Z,19.32
2018-12-19T03:35:12.335Z,19.65
2018-12-19T03:37:40.483Z,19.17
2018-12-19T03:40:08.651Z,19.05
2018-12-19T03:42:36.794Z,19.00
2018-12-19T03:45:05.470Z,19.62
2018-12-19T03:47:33.610Z,19.98
2018-12-19T03:50:01.807Z,18.35
2018-12-19T03:52:29.934Z,18.30
2018-12-19T03:54:58.094Z,19.95
2018-12-19T03:57:26.390Z,20.68
2018-12-19T03:59:54.519Z,19.67
2018-12-19T04:02:22.697Z,18.10
2018-12-19T04:04:50.811Z,21.07
2018-12-19T04:07:18.929Z,21.48
2018-12-19T04:09:47.082Z,21.10
2018-12-19T04:12:15.241Z,21.50
2018-12-19T04:14:43.378Z,21.85
2018-12-19T04:17:11.633Z,21.17
2018-12-19T04:19:39.861Z,21.52
2018-12-19T04:22:08.494Z,21.02
2018-12-19T04:24:36.670Z,20.60
2018-12-19T04:27:04.821Z,20.68
2018-12-19T04:29:33.692Z,21.65
2018-12-19T04:32:01.936Z,19.87
2018-12-19T04:34:30.008Z,19.67
2018-12-19T04:36:58.133Z,20.88
2018-12-19T04:39:26.291Z,20.97
2018-12-19T04:41:54.448Z,21.35
2018-12-19T04:44:22.621Z,20.70
2018-12-19T04:46:50.786Z,19.55
2018-12-19T04:49:18.912Z,21.60
2018-12-19T04:51:47.012Z,21.93
2018-12-19T04:54:15.174Z,21.05
2018-12-19T04:56:43.301Z,20.77
2018-12-19T04:59:11.445Z,21.25
2018-12-19T05:01:39.609Z,20.50
2018-12-19T05:04:07.770Z,21.62
2018-12-19T05:06:35.869Z,21.17
2018-12-19T05:09:05.770Z,19.67
2018-12-19T05:11:34.247Z,21.62
2018-12-19T05:14:02.368Z,20.23
2018-12-19T05:16:30.476Z,20.55
2018-12-19T05:18:58.658Z,20.23
2018-12-19T05:21:26.766Z,19.57
2018-12-19T05:23:54.912Z,21.33
2018-12-19T05:26:23.064Z,21.20
2018-12-19T05:28:51.257Z,20.08
2018-12-19T05:31:19.387Z,20.62
2018-12-19T05:33:47.506Z,19.87
2018-12-19T05:36:15.624Z,21.45
2018-12-19T05:38:43.755Z,20.68
2018-12-19T05:41:11.912Z,20.02
2018-12-19T05:43:40.050Z,20.35
2018-12-19T05:46:08.208Z,19.77
2018-12-19T05:48:36.313Z,20.45
2018-12-19T05:51:04.486Z,21.12
2018-12-19T05:53:32.658Z,21.10
2018-12-19T05:56:00.807Z,21.77
2018-12-19T05:58:28.928Z,21.00
2018-12-19T06:00:57.220Z,21.30
2018-12-19T06:03:25.367Z,22.93
2018-12-19T06:05:53.659Z,20.05
2018-12-19T06:08:21.881Z,20.92
2018-12-19T06:10:50.018Z,21.42
2018-12-19T06:13:18.168Z,19.87
2018-12-19T06:15:46.307Z,21.12
2018-12-19T06:18:14.497Z,23.07
2018-12-19T06:20:42.753Z,20.43
2018-12-19T06:23:10.902Z,21.82
2018-12-19T06:25:39.088Z,22.37
2018-12-19T06:28:07.236Z,21.35
2018-12-19T06:30:35.488Z,21.60
2018-12-19T06:33:03.642Z,22.37
2018-12-19T06:35:31.849Z,20.27
2018-12-19T06:38:00.012Z,21.23
2018-12-19T06:40:32.685Z,21.75
2018-12-19T06:42:58.327Z,21.33
2018-12-19T06:45:26.438Z,19.92
2018-12-19T06:47:54.598Z,21.23
2018-12-19T06:50:22.804Z,20.40
2018-12-19T06:52:50.989Z,21.23
2018-12-19T06:55:19.152Z,20.80
2018-12-19T06:57:47.352Z,20.97
2018-12-19T07:00:15.725Z,21.27
2018-12-19T07:02:43.965Z,21.20
2018-12-19T07:05:12.134Z,20.43
2018-12-19T07:07:43.169Z,21.25
2018-12-19T07:10:11.420Z,21.02
2018-12-19T07:12:39.542Z,20.97
2018-12-19T07:15:07.979Z,21.52
2018-12-19T07:17:36.095Z,21.15
2018-12-19T07:20:04.348Z,18.85
2018-12-19T07:22:32.394Z,22.25
2018-12-19T07:25:00.527Z,20.85
2018-12-19T07:27:28.712Z,21.87
2018-12-19T07:29:56.824Z,22.07
2018-12-19T07:32:24.917Z,21.77
2018-12-19T07:34:53.010Z,20.17
2018-12-19T07:37:21.110Z,20.68
2018-12-19T07:39:49.259Z,21.07
2018-12-19T07:42:17.423Z,21.80
2018-12-19T07:44:45.565Z,20.68
2018-12-19T07:47:13.698Z,21.48
2018-12-19T07:49:41.784Z,20.70
2018-12-19T07:52:09.911Z,21.82
2018-12-19T07:54:38.085Z,23.18
2018-12-19T07:57:06.174Z,19.92
2018-12-19T07:59:34.261Z,20.40
2018-12-19T08:02:02.412Z,20.77
2018-12-19T08:04:30.748Z,20.85
2018-12-19T08:06:58.986Z,20.92
2018-12-19T08:09:27.176Z,19.62
2018-12-19T08:11:55.330Z,20.50
2018-12-19T08:14:23.445Z,21.30
2018-12-19T08:16:51.597Z,19.60
2018-12-19T08:19:19.795Z,20.05
2018-12-19T08:21:48.162Z,20.37
2018-12-19T08:24:16.299Z,20.23
2018-12-19T08:26:44.448Z,20.82
2018-12-19T08:29:12.630Z,21.67
2018-12-19T08:31:41.042Z,20.40
2018-12-19T08:34:09.289Z,18.83
2018-12-19T08:36:37.408Z,21.00
2018-12-19T08:39:06.410Z,20.30
2018-12-19T08:41:35.823Z,19.37
2018-12-19T08:44:03.974Z,20.67
2018-12-19T08:46:32.045Z,19.93
2018-12-19T08:49:00.213Z,20.13
2018-12-19T08:51:28.308Z,20.00
2018-12-19T08:53:56.458Z,19.30
2018-12-19T08:56:24.596Z,21.10
2018-12-19T08:58:52.838Z,19.00
2018-12-19T09:01:20.985Z,18.87
2018-12-19T09:03:49.220Z,19.83
2018-12-19T09:06:17.354Z,18.97
2018-12-19T09:08:45.519Z,19.83
2018-12-19T09:11:13.781Z,19.10
2018-12-19T09:13:41.945Z,21.20
2018-12-19T09:16:10.130Z,19.53
2018-12-19T09:18:38.294Z,18.53
2018-12-19T09:21:06.417Z,19.57
2018-12-19T09:23:34.508Z,17.93
2018-12-19T09:26:02.629Z,21.20
2018-12-19T09:28:30.746Z,18.27
2018-12-19T09:30:58.909Z,20.53
2018-12-19T09:33:27.595Z,21.33
2018-12-19T09:35:56.124Z,20.13
2018-12-19T09:38:24.254Z,19.23
2018-12-19T09:40:52.441Z,19.87
2018-12-19T09:43:20.620Z,20.73
2018-12-19T09:45:48.770Z,19.47
2018-12-19T09:48:16.919Z,19.37
2018-12-19T09:50:45.068Z,20.10
2018-12-19T09:53:13.658Z,19.90
2018-12-19T09:55:41.814Z,18.77
2018-12-19T09:58:09.961Z,19.40
2018-12-19T10:00:38.078Z,18.23
2018-12-19T10:03:06.237Z,18.23
2018-12-19T10:05:34.513Z,19.30
2018-12-19T10:08:02.596Z,19.20
2018-12-19T10:10:30.749Z,19.27
2018-12-19T10:12:58.911Z,19.10
2018-12-19T10:15:27.040Z,18.67
2018-12-19T10:17:55.191Z,20.20
2018-12-19T10:20:23.308Z,17.93
2018-12-19T10:22:54.731Z,19.13
2018-12-19T10:25:23.583Z,19.20
2018-12-19T10:27:51.872Z,19.17
2018-12-19T10:30:20.010Z,17.73
2018-12-19T10:32:52.491Z,17.47
2018-12-19T10:35:37.902Z,18.67
2018-12-19T10:38:06.091Z,18.13
2018-12-19T10:40:34.376Z,17.00
2018-12-19T10:43:02.559Z,17.90
2018-12-19T10:45:30.790Z,17.70
2018-12-19T10:47:58.945Z,17.97
2018-12-19T10:50:27.083Z,18.00
2018-12-19T10:52:55.211Z,17.90
2018-12-19T10:55:23.489Z,17.80
2018-12-19T10:57:51.876Z,17.17
2018-12-19T11:00:25.265Z,16.67
2018-12-19T11:02:53.396Z,18.30
2018-12-19T11:05:21.548Z,19.53
2018-12-19T11:07:49.721Z,18.07
2018-12-19T11:10:17.852Z,18.07
2018-12-19T11:12:46.092Z,17.67
2018-12-19T11:15:14.357Z,17.03
2018-12-19T11:17:42.545Z,17.53
2018-12-19T11:20:10.896Z,16.80
2018-12-19T11:22:39.061Z,17.10
2018-12-19T11:25:07.461Z,16.70
2018-12-19T11:27:35.657Z,17.00
2018-12-19T11:30:04.247Z,16.73
2018-12-19T11:32:32.537Z,16.73
2018-12-19T11:35:00.749Z,17.53
2018-12-19T11:37:29.065Z,19.10
2018-12-19T11:39:57.215Z,17.73
2018-12-19T11:42:25.360Z,18.70
2018-12-19T11:44:53.499Z,18.30
2018-12-19T11:47:21.739Z,17.93
2018-12-19T11:49:49.885Z,17.60
2018-12-19T11:55:07.304Z,20.70
2018-12-19T11:57:35.661Z,19.13
2018-12-19T12:00:04.285Z,19.53
2018-12-19T12:02:32.404Z,18.37
2018-12-19T12:05:00.594Z,18.40
2018-12-19T12:07:29.115Z,18.47
2018-12-19T12:09:57.345Z,17.23
2018-12-19T12:12:25.469Z,17.73
2018-12-19T12:14:53.663Z,18.93
2018-12-19T12:17:21.825Z,18.60
2018-12-19T12:19:50.020Z,18.37
2018-12-19T12:22:18.246Z,17.80
2018-12-19T12:24:46.522Z,18.13
2018-12-19T12:27:14.750Z,18.60
2018-12-19T12:29:42.906Z,18.83
2018-12-19T12:32:11.024Z,18.37
2018-12-19T12:34:39.164Z,19.57
2018-12-19T12:39:56.450Z,18.60
2018-12-19T12:42:24.667Z,19.60
2018-12-19T12:44:53.252Z,17.60
2018-12-19T12:47:21.519Z,17.93
2018-12-19T12:49:49.850Z,18.17
2018-12-19T12:52:18.060Z,17.53
2018-12-19T12:54:46.234Z,16.63
2018-12-19T12:57:14.394Z,18.40
2018-12-19T12:59:42.562Z,18.00
2018-12-19T13:02:10.748Z,17.77
2018-12-19T13:04:38.992Z,18.77
2018-12-19T13:07:07.210Z,19.10
2018-12-19T13:09:35.365Z,19.40
2018-12-19T13:12:03.654Z,17.73
2018-12-19T13:14:31.934Z,18.70
2018-12-19T13:17:00.209Z,19.07
2018-12-19T13:19:28.426Z,19.50
2018-12-19T13:22:00.244Z,19.03
2018-12-19T13:24:28.401Z,19.47
2018-12-19T13:26:56.535Z,18.93
2018-12-19T13:29:24.733Z,19.83
2018-12-19T13:31:53.101Z,19.07
2018-12-19T13:34:21.390Z,19.50
2018-12-19T13:36:49.622Z,20.03
2018-12-19T13:39:17.779Z,20.53
2018-12-19T13:41:45.936Z,19.73
2018-12-19T13:44:14.057Z,19.33
2018-12-19T13:46:44.579Z,19.97
2018-12-19T13:49:12.753Z,20.33
2018-12-19T13:51:41.013Z,18.90
2018-12-19T13:54:09.134Z,20.13
2018-12-19T13:56:37.355Z,19.10
2018-12-19T13:59:06.033Z,19.80
2018-12-19T14:04:24.367Z,19.77
2018-12-19T14:07:02.127Z,19.47
2018-12-19T14:09:30.318Z,19.13
2018-12-19T14:11:58.645Z,19.50
2018-12-19T14:14:26.836Z,19.60
2018-12-19T14:16:55.082Z,20.80
2018-12-19T14:19:23.267Z,20.73
2018-12-19T14:21:51.435Z,20.93
2018-12-19T14:24:19.605Z,20.00
2018-12-19T14:26:47.944Z,20.33
2018-12-19T14:29:16.073Z,20.47
2018-12-19T14:31:44.253Z,21.17
2018-12-19T14:34:12.384Z,19.63
2018-12-19T14:36:40.571Z,19.60
2018-12-19T14:39:08.742Z,18.73
2018-12-19T14:41:37.377Z,20.93
2018-12-19T14:44:05.886Z,20.17
2018-12-19T14:46:34.045Z,21.57
2018-12-19T14:51:51.901Z,19.77
2018-12-19T14:54:20.168Z,20.60
2018-12-19T14:56:48.387Z,20.23
2018-12-19T15:02:06.613Z,20.33
2018-12-19T15:04:34.805Z,21.43
2018-12-19T15:07:02.972Z,20.47
2018-12-19T15:09:31.148Z,20.60
2018-12-19T15:11:59.342Z,20.60
2018-12-19T15:14:27.556Z,21.30
2018-12-19T15:16:55.895Z,20.83
2018-12-19T15:19:24.163Z,21.13
2018-12-19T15:22:06.011Z,22.20
2018-12-19T15:24:34.244Z,20.53
2018-12-19T15:27:02.469Z,20.90
2018-12-19T15:29:30.703Z,21.93
2018-12-19T15:31:58.965Z,22.60
2018-12-19T15:34:27.182Z,21.17
2018-12-19T15:36:55.403Z,21.90
2018-12-19T15:39:23.641Z,22.40
2018-12-19T15:41:51.773Z,22.97
2018-12-19T15:44:19.980Z,22.77
2018-12-19T15:46:48.145Z,25.82
2018-12-19T15:49:16.339Z,22.80
2018-12-19T15:51:44.651Z,22.43
2018-12-19T15:54:12.792Z,21.73
2018-12-19T16:11:39.408Z,21.17
2018-12-19T16:14:15.646Z,20.80
2018-12-19T16:16:47.553Z,23.57
2018-12-19T16:24:54.751Z,23.20
2018-12-19T16:27:22.939Z,22.60
2018-12-19T16:29:51.953Z,21.37
2018-12-19T16:32:20.224Z,22.03
2018-12-19T16:40:35.218Z,23.70
2018-12-19T16:43:03.866Z,21.53
2018-12-19T16:45:35.297Z,22.60
2018-12-19T16:48:07.340Z,22.62
2018-12-19T16:50:38.787Z,24.30
2018-12-19T16:55:56.847Z,22.37
2018-12-19T16:58:27.043Z,22.37
2018-12-19T17:09:26.453Z,23.33
2018-12-19T17:12:02.781Z,22.82
2018-12-19T17:17:27.632Z,24.67
2018-12-19T17:20:01.227Z,23.13
2018-12-19T17:28:09.252Z,25.68
2018-12-19T17:30:37.459Z,22.77
2018-12-19T17:38:57.177Z,23.38
2018-12-19T17:41:27.239Z,22.77
2018-12-19T17:44:01.490Z,23.98
2018-12-19T17:46:33.543Z,24.82
2018-12-19T17:49:07.174Z,25.02
2018-12-19T17:54:28.920Z,23.62
2018-12-19T17:57:02.833Z,23.70
2018-12-19T17:59:37.551Z,24.02
2018-12-19T18:02:11.273Z,30.12
2018-12-19T18:04:42.753Z,23.50
2018-12-19T18:07:17.350Z,24.40
2018-12-19T18:09:45.729Z,23.22
2018-12-19T18:12:25.755Z,24.37
2018-12-19T18:24:39.738Z,23.15
2018-12-19T18:27:17.809Z,23.55
2018-12-19T18:29:47.700Z,22.80
2018-12-19T18:32:19.406Z,23.38
2018-12-19T18:34:59.627Z,21.75
2018-12-19T18:37:31.321Z,22.75
2018-12-19T18:40:03.844Z,23.15
2018-12-19T18:42:35.720Z,23.05
2018-12-19T18:45:11.898Z,24.18
2018-12-19T18:47:39.379Z,24.32
2018-12-19T18:50:11.430Z,22.93
2018-12-19T18:52:40.709Z,22.60
2018-12-19T18:55:11.922Z,23.27
2018-12-19T18:57:40.967Z,24.92
2018-12-19T19:00:15.001Z,23.60
2018-12-19T19:02:46.404Z,23.98
2018-12-19T19:05:20.474Z,23.27
2018-12-19T19:07:54.201Z,24.75
2018-12-19T19:10:25.953Z,23.67
2018-12-19T19:13:02.473Z,23.70
2018-12-19T19:15:34.045Z,24.55
2018-12-19T19:18:09.402Z,24.05
2018-12-19T19:20:41.352Z,23.90
2018-12-19T19:23:13.769Z,23.83
2018-12-19T19:25:47.648Z,24.20
2018-12-19T19:28:20.106Z,22.87
2018-12-19T19:30:52.048Z,23.22
2018-12-19T19:33:26.400Z,23.47
2018-12-19T19:38:39.418Z,21.82
2018-12-19T19:41:20.086Z,23.47
2018-12-19T19:43:51.550Z,23.00
2018-12-19T19:46:25.988Z,24.07
2018-12-19T19:48:57.439Z,22.93
2018-12-19T19:51:38.131Z,22.57
2018-12-19T19:54:09.702Z,23.70
2018-12-19T19:56:44.344Z,22.77
2018-12-19T19:59:13.915Z,22.27
2018-12-19T20:01:46.358Z,22.73
2018-12-19T20:04:18.304Z,24.80
2018-12-19T20:06:50.227Z,23.12
2018-12-19T20:09:21.717Z,22.20
2018-12-19T20:11:53.912Z,23.47
2018-12-19T20:14:26.164Z,22.10
2018-12-19T20:17:00.800Z,21.75
2018-12-19T20:19:39.368Z,22.17
2018-12-19T20:22:11.451Z,22.90
2018-12-19T20:24:45.348Z,21.55
2018-12-19T20:27:16.708Z,21.60
2018-12-19T20:29:49.206Z,22.73
2018-12-19T20:32:20.939Z,21.77
2018-12-19T20:35:00.582Z,21.80
2018-12-19T20:37:31.975Z,21.95
2018-12-19T20:40:03.942Z,21.50
2018-12-19T20:42:32.958Z,21.00
2018-12-19T20:56:21.949Z,20.17
2018-12-19T21:10:05.169Z,22.00
2018-12-19T21:12:33.407Z,20.43
2018-12-19T21:15:05.930Z,21.90
2018-12-19T21:17:47.479Z,21.30
2018-12-19T21:20:17.587Z,20.80
2018-12-19T21:22:51.216Z,22.27
2018-12-19T21:25:22.545Z,21.00
2018-12-19T21:28:00.949Z,21.93
2018-12-19T21:30:32.275Z,21.83
2018-12-19T21:33:04.017Z,20.07
2018-12-19T21:35:36.237Z,22.70
2018-12-19T21:38:07.886Z,22.27
2018-12-19T21:40:42.033Z,21.67
2018-12-19T21:43:13.865Z,22.23
2018-12-19T21:45:52.182Z,22.23
2018-12-19T21:48:23.577Z,21.03
2018-12-19T21:50:58.065Z,21.17
2018-12-19T21:53:26.249Z,22.40
2018-12-19T21:56:02.144Z,24.80
2018-12-19T21:58:31.717Z,22.50
2018-12-19T22:01:06.529Z,23.20
2018-12-19T22:03:38.716Z,21.43
2018-12-19T22:06:11.705Z,21.50
2018-12-19T22:08:43.910Z,21.97
2018-12-19T22:11:15.921Z,21.30
2018-12-19T22:13:48.101Z,23.43
2018-12-19T22:16:32.192Z,22.53
2018-12-19T22:19:06.814Z,20.70
2018-12-19T22:21:38.997Z,22.87
2018-12-19T22:24:19.626Z,21.03
2018-12-19T22:26:54.266Z,20.83
2018-12-19T22:29:27.948Z,21.90
2018-12-19T22:31:59.685Z,22.60
2018-12-19T22:34:27.949Z,23.17
2018-12-19T22:36:56.260Z,22.60
2018-12-19T22:39:24.548Z,23.67
2018-12-19T22:41:52.885Z,23.45
2018-12-19T22:44:21.243Z,23.07
2018-12-19T22:46:49.407Z,22.90
2018-12-19T22:49:17.547Z,23.87
2018-12-19T22:51:45.795Z,22.50
2018-12-19T22:54:14.269Z,23.95
2018-12-19T22:56:42.379Z,22.33
2018-12-19T22:59:10.665Z,21.97
2018-12-19T23:01:44.287Z,23.63
2018-12-19T23:04:12.399Z,22.47
2018-12-19T23:06:40.568Z,21.17
2018-12-19T23:09:08.770Z,22.67
2018-12-19T23:11:36.955Z,23.52
2018-12-19T23:14:05.179Z,23.52
2018-12-19T23:16:33.405Z,22.27
2018-12-19T23:19:01.770Z,23.42
2018-12-19T23:21:30.158Z,23.80
2018-12-19T23:23:58.411Z,23.83
2018-12-19T23:26:26.649Z,22.67
2018-12-19T23:29:00.294Z,23.97
2018-12-19T23:31:28.431Z,22.87
2018-12-19T23:33:56.632Z,23.07
2018-12-19T23:36:24.854Z,22.60
2018-12-19T23:38:53.128Z,23.03
2018-12-19T23:41:21.299Z,23.77
2018-12-19T23:43:49.434Z,22.73
2018-12-19T23:46:17.579Z,23.37
2018-12-19T23:48:45.704Z,21.93
2018-12-19T23:51:13.967Z,22.63
2018-12-19T23:53:42.202Z,22.23
2018-12-19T23:56:10.412Z,23.13
2018-12-19T23:58:38.539Z,23.80
